Time;durP1;ratioP1;P1;durP2;ratioP2;P2;SDS_P1;SDS_P2;PMS_P1;PMS_P2;Temp;Humidity;BMP_temperature;BMP_pressure;BME280_temperature;BME280_humidity;BME280_pressure;Samples;Min_cycle;Max_cycle;Signal;HPM_P1;HPM_P2
2023/08/30 00:00:15;;;;;;;;;;;;;;;30.69;64.25;100741.19;106867;1257;25334;-53
2023/08/30 00:02:42;;;;;;;;;;;;;;;30.69;64.19;100742.29;106820;1269;25422;-51
2023/08/30 00:05:09;;;;;;;;;;;;;;;30.68;64.24;100741.66;106741;1260;24227;-51
2023/08/30 00:07:36;;;;;;;;;;;;;;;30.67;64.27;100742.62;106735;1261;23874;-52
2023/08/30 00:10:03;;;;;;;;;;;;;;;30.66;64.40;100741.86;106856;1256;25456;-51
2023/08/30 00:12:31;;;;;;;;;;;;;;;30.65;64.41;100747.85;106893;1256;25306;-52
2023/08/30 00:14:58;;;;;;;;;;;;;;;30.65;64.53;100746.30;106842;1264;24233;-52
2023/08/30 00:17:25;;;;;;;;;;;;;;;30.63;64.73;100747.04;106730;1267;25341;-51
2023/08/30 00:19:54;;;;;;;;;;;;;;;30.62;64.80;100748.61;106829;1270;25341;-51
2023/08/30 00:22:21;;;;;;;;;;;;;;;30.60;64.96;100748.02;106746;1267;25312;-52
2023/08/30 00:24:48;;;;;;;;;;;;;;;30.60;65.03;100749.89;106780;1258;25344;-51
2023/08/30 00:27:15;;;;;;;;;;;;;;;30.58;65.21;100750.39;106906;1257;25312;-53
2023/08/30 00:29:43;;;;;;;;;;;;;;;30.58;65.28;100752.42;106631;1278;25381;-51
2023/08/30 00:32:09;;;;;;;;;;;;;;;30.57;65.31;100755.17;106755;1259;24226;-52
2023/08/30 00:34:36;;;;;;;;;;;;;;;30.57;65.46;100758.59;106409;1261;422446;-57
2023/08/30 00:37:03;;;;;;;;;;;;;;;30.57;65.45;100762.36;106791;1258;25315;-52
2023/08/30 00:39:30;;;;;;;;;;;;;;;30.57;65.32;100761.48;106802;1259;23176;-52
2023/08/30 00:41:57;;;;;;;;;;;;;;;30.57;65.37;100761.12;106830;1269;25326;-52
2023/08/30 00:44:24;;;;;;;;;;;;;;;30.55;65.45;100758.39;106794;1266;25316;-51
2023/08/30 00:46:52;;;;;;;;;;;;;;;30.53;65.50;100758.90;106724;1261;25391;-52
2023/08/30 00:49:19;;;;;;;;;;;;;;;30.51;65.50;100757.52;106724;1267;25333;-53
2023/08/30 00:51:45;;;;;;;;;;;;;;;30.49;65.62;100759.17;106717;1259;25344;-50
2023/08/30 00:54:12;;;;;;;;;;;;;;;30.48;65.78;100762.55;106832;1260;24337;-51
2023/08/30 00:56:39;;;;;;;;;;;;;;;30.47;65.57;100766.61;106829;1270;25326;-53
2023/08/30 00:59:06;;;;;;;;;;;;;;;30.45;65.83;100765.71;106807;1265;25434;-52
2023/08/30 01:01:33;;;;;;;;;;;;;;;30.43;65.85;100766.96;106739;1257;24471;-51
2023/08/30 01:04:00;;;;;;;;;;;;;;;30.42;65.84;100771.92;106784;1270;25315;-53
2023/08/30 01:06:27;;;;;;;;;;;;;;;30.42;65.92;100771.05;106844;1265;25384;-51
2023/08/30 01:08:54;;;;;;;;;;;;;;;30.41;65.79;100771.35;106881;1267;23427;-52
2023/08/30 01:11:40;;;;;;;;;;;;;;;30.40;65.66;100773.63;106765;1266;25319;-52
2023/08/30 01:14:13;;;;;;;;;;;;;;;30.34;65.80;100776.05;106757;1277;25337;-57
2023/08/30 01:16:40;;;;;;;;;;;;;;;30.36;65.60;100778.27;106689;1264;25381;-52
2023/08/30 01:19:27;;;;;;;;;;;;;;;30.36;65.55;100781.19;106686;1273;25393;-51
2023/08/30 01:22:13;;;;;;;;;;;;;;;30.30;65.79;100780.23;106899;1259;25405;-53
2023/08/30 01:25:00;;;;;;;;;;;;;;;30.33;65.56;100783.10;106809;1270;25331;-52
2023/08/30 01:27:28;;;;;;;;;;;;;;;30.39;65.02;100783.50;106363;1270;24179;-53
2023/08/30 01:29:54;;;;;;;;;;;;;;;30.39;65.11;100781.41;106821;1260;25366;-55
2023/08/30 01:32:25;;;;;;;;;;;;;;;30.37;64.84;100781.95;106742;1262;25337;-55
2023/08/30 01:34:52;;;;;;;;;;;;;;;30.36;64.58;100781.34;106376;1272;24176;-54
2023/08/30 01:37:18;;;;;;;;;;;;;;;30.36;64.30;100783.71;106398;1259;25475;-52
2023/08/30 01:39:48;;;;;;;;;;;;;;;30.34;63.93;100780.10;106090;1267;22523;-54
2023/08/30 01:42:14;;;;;;;;;;;;;;;30.30;63.44;100783.56;106652;1270;25331;-53
2023/08/30 01:44:44;;;;;;;;;;;;;;;30.33;63.12;100783.92;106338;1274;22696;-54
2023/08/30 01:47:11;;;;;;;;;;;;;;;30.36;62.57;100785.59;106538;1260;25312;-53
2023/08/30 01:49:39;;;;;;;;;;;;;;;30.37;62.30;100782.64;106612;1264;23898;-52
2023/08/30 01:52:06;;;;;;;;;;;;;;;30.39;62.08;100782.59;106529;1259;24154;-52
2023/08/30 01:54:33;;;;;;;;;;;;;;;30.39;61.80;100784.56;106387;1272;23889;-56
2023/08/30 01:57:00;;;;;;;;;;;;;;;30.40;61.63;100787.39;106436;1273;25312;-52
2023/08/30 01:59:27;;;;;;;;;;;;;;;30.41;61.44;100789.90;106383;1264;23440;-51
2023/08/30 02:01:54;;;;;;;;;;;;;;;30.42;61.25;100790.05;106586;1270;24389;-53
2023/08/30 02:04:22;;;;;;;;;;;;;;;30.42;61.22;100789.11;106251;1268;25471;-51
2023/08/30 02:06:50;;;;;;;;;;;;;;;30.41;61.30;100789.91;106813;1270;24603;-51
2023/08/30 02:09:19;;;;;;;;;;;;;;;30.39;61.72;100790.30;106767;1267;22514;-51
2023/08/30 02:11:46;;;;;;;;;;;;;;;30.37;61.84;100788.41;106651;1270;25344;-51
2023/08/30 02:14:15;;;;;;;;;;;;;;;30.36;62.27;100789.25;106671;1270;25333;-51
2023/08/30 02:16:42;;;;;;;;;;;;;;;30.33;62.56;100789.20;106766;1265;25414;-51
2023/08/30 02:19:09;;;;;;;;;;;;;;;30.32;62.72;100788.35;106705;1260;25305;-51
2023/08/30 02:21:37;;;;;;;;;;;;;;;30.34;62.52;100790.34;106709;1269;25306;-51
2023/08/30 02:24:04;;;;;;;;;;;;;;;30.33;62.42;100791.91;106750;1265;24227;-52
2023/08/30 02:26:31;;;;;;;;;;;;;;;30.31;62.33;100793.19;106782;1256;25313;-53
2023/08/30 02:28:58;;;;;;;;;;;;;;;30.29;62.39;100794.92;106850;1259;23300;-53
2023/08/30 02:31:25;;;;;;;;;;;;;;;30.29;62.73;100792.11;106751;1260;25372;-51
2023/08/30 02:33:52;;;;;;;;;;;;;;;30.29;62.83;100790.84;106876;1261;25315;-52
2023/08/30 02:36:19;;;;;;;;;;;;;;;30.29;63.03;100787.66;106777;1255;25305;-53
2023/08/30 02:38:46;;;;;;;;;;;;;;;30.29;63.18;100786.20;106832;1268;25306;-51
2023/08/30 02:41:14;;;;;;;;;;;;;;;30.30;63.32;100790.05;106826;1262;22507;-51
2023/08/30 02:43:41;;;;;;;;;;;;;;;30.30;63.64;100792.20;106746;1259;25495;-52
2023/08/30 02:46:08;;;;;;;;;;;;;;;30.29;63.81;100796.39;106811;1256;25334;-51
2023/08/30 02:48:35;;;;;;;;;;;;;;;30.28;63.85;100797.56;106801;1261;25469;-53
2023/08/30 02:51:02;;;;;;;;;;;;;;;30.27;63.79;100799.05;106791;1270;25344;-53
2023/08/30 02:53:29;;;;;;;;;;;;;;;30.26;63.58;100797.41;106830;1256;25466;-53
2023/08/30 02:55:56;;;;;;;;;;;;;;;30.24;62.91;100800.42;106742;1260;25334;-51
2023/08/30 02:58:23;;;;;;;;;;;;;;;30.23;62.31;100799.16;106765;1266;24227;-52
2023/08/30 03:00:51;;;;;;;;;;;;;;;30.22;61.74;100803.52;106847;1259;25316;-51
2023/08/30 03:03:18;;;;;;;;;;;;;;;30.23;61.43;100807.41;106533;1276;25318;-51
2023/08/30 03:05:44;;;;;;;;;;;;;;;30.22;61.16;100808.02;106751;1259;25323;-51
2023/08/30 03:08:11;;;;;;;;;;;;;;;30.22;61.08;100809.80;106852;1259;25373;-50
2023/08/30 03:10:39;;;;;;;;;;;;;;;30.20;60.50;100810.88;106805;1266;25465;-51
2023/08/30 03:13:06;;;;;;;;;;;;;;;30.17;60.01;100808.33;106823;1260;22514;-51
2023/08/30 03:15:33;;;;;;;;;;;;;;;30.15;59.61;100809.52;106348;1264;25423;-52
2023/08/30 03:18:02;;;;;;;;;;;;;;;30.11;59.01;100810.56;106612;1262;22480;-52
2023/08/30 03:20:29;;;;;;;;;;;;;;;30.07;58.36;100807.67;106737;1262;25383;-52
2023/08/30 03:22:56;;;;;;;;;;;;;;;30.03;58.48;100806.75;106624;1262;24173;-52
2023/08/30 03:25:24;;;;;;;;;;;;;;;30.02;58.39;100805.84;106760;1260;25101;-51
2023/08/30 03:27:51;;;;;;;;;;;;;;;29.99;57.76;100806.29;106719;1266;25334;-51
2023/08/30 03:30:18;;;;;;;;;;;;;;;29.96;56.95;100807.87;106617;1263;25408;-51
2023/08/30 03:32:45;;;;;;;;;;;;;;;29.94;56.80;100810.11;106739;1257;25401;-52
2023/08/30 03:35:14;;;;;;;;;;;;;;;29.93;56.45;100809.31;106668;1270;25347;-51
2023/08/30 03:37:41;;;;;;;;;;;;;;;29.91;56.57;100810.69;106622;1259;25311;-50
2023/08/30 03:40:09;;;;;;;;;;;;;;;29.91;56.07;100815.71;106654;1264;25414;-51
2023/08/30 03:42:36;;;;;;;;;;;;;;;29.92;55.74;100818.51;106647;1272;25389;-51
2023/08/30 03:45:05;;;;;;;;;;;;;;;29.92;55.14;100817.30;106784;1273;25319;-50
2023/08/30 03:47:32;;;;;;;;;;;;;;;29.91;54.63;100818.09;106646;1269;22536;-52
2023/08/30 03:49:59;;;;;;;;;;;;;;;29.90;54.51;100819.20;106758;1267;25334;-53
2023/08/30 03:52:26;;;;;;;;;;;;;;;29.91;54.88;100817.18;106473;1272;25306;-51
2023/08/30 03:54:55;;;;;;;;;;;;;;;29.91;54.77;100815.77;106665;1259;25201;-51
2023/08/30 03:57:21;;;;;;;;;;;;;;;29.90;55.03;100813.16;106768;1262;25315;-49
2023/08/30 03:59:48;;;;;;;;;;;;;;;29.91;55.18;100819.10;106743;1267;25305;-51
2023/08/30 04:02:15;;;;;;;;;;;;;;;29.92;54.78;100819.72;106708;1259;25344;-51
2023/08/30 04:04:42;;;;;;;;;;;;;;;29.92;54.36;100820.26;106637;1270;23841;-52
2023/08/30 04:07:09;;;;;;;;;;;;;;;29.91;54.02;100820.20;106713;1268;25336;-50
2023/08/30 04:09:36;;;;;;;;;;;;;;;29.90;53.24;100819.94;106747;1259;25321;-51
2023/08/30 04:12:04;;;;;;;;;;;;;;;29.90;53.28;100823.21;106891;1257;25381;-52
2023/08/30 04:14:32;;;;;;;;;;;;;;;29.90;53.50;100825.52;106886;1259;25306;-52
2023/08/30 04:16:59;;;;;;;;;;;;;;;29.90;53.82;100830.54;106650;1259;25332;-51
2023/08/30 04:19:26;;;;;;;;;;;;;;;29.91;53.82;100828.65;106867;1267;25389;-51
2023/08/30 04:21:53;;;;;;;;;;;;;;;29.92;53.96;100831.69;106782;1266;24185;-52
2023/08/30 04:24:20;;;;;;;;;;;;;;;29.93;53.93;100836.98;106825;1267;23852;-51
2023/08/30 04:26:51;;;;;;;;;;;;;;;29.93;53.95;100840.73;106649;1268;24169;-52
2023/08/30 04:29:18;;;;;;;;;;;;;;;29.93;53.81;100838.59;106827;1259;24469;-51
2023/08/30 04:31:45;;;;;;;;;;;;;;;29.92;53.64;100839.38;106773;1268;25333;-51
2023/08/30 04:34:11;;;;;;;;;;;;;;;29.94;53.62;100837.98;106724;1260;25399;-51
2023/08/30 04:36:39;;;;;;;;;;;;;;;29.95;53.87;100839.31;106799;1275;25325;-51
2023/08/30 04:39:06;;;;;;;;;;;;;;;29.95;53.73;100835.52;106847;1261;25427;-51
2023/08/30 04:41:33;;;;;;;;;;;;;;;29.95;53.64;100839.83;106863;1259;25242;-50
2023/08/30 04:44:01;;;;;;;;;;;;;;;29.95;53.86;100838.21;106766;1256;25333;-51
2023/08/30 04:46:29;;;;;;;;;;;;;;;29.94;54.29;100843.48;106770;1256;25265;-51
2023/08/30 04:48:56;;;;;;;;;;;;;;;29.91;53.65;100846.90;106638;1270;25465;-51
2023/08/30 04:51:23;;;;;;;;;;;;;;;29.93;53.51;100848.86;106716;1267;25489;-50
2023/08/30 04:53:50;;;;;;;;;;;;;;;29.94;52.61;100848.91;106834;1254;25333;-52
2023/08/30 04:56:18;;;;;;;;;;;;;;;29.95;52.61;100851.96;106766;1267;25344;-51
2023/08/30 04:58:45;;;;;;;;;;;;;;;29.96;53.15;100854.02;106745;1259;25381;-51
2023/08/30 05:01:13;;;;;;;;;;;;;;;29.96;53.21;100849.70;106871;1259;25434;-54
2023/08/30 05:03:42;;;;;;;;;;;;;;;29.96;52.70;100853.02;106752;1260;25462;-51
2023/08/30 05:06:15;;;;;;;;;;;;;;;29.95;53.13;100848.58;106782;1264;22628;-51
2023/08/30 05:08:42;;;;;;;;;;;;;;;29.96;53.15;100852.58;106640;1269;25272;-52
2023/08/30 05:11:10;;;;;;;;;;;;;;;29.97;53.65;100849.27;106544;1256;25386;-53
2023/08/30 05:13:37;;;;;;;;;;;;;;;29.96;53.83;100852.74;106754;1263;25347;-52
2023/08/30 05:16:04;;;;;;;;;;;;;;;29.95;52.76;100850.73;106586;1257;25459;-51
2023/08/30 05:18:32;;;;;;;;;;;;;;;29.96;52.22;100852.79;106653;1270;25341;-53
2023/08/30 05:21:03;;;;;;;;;;;;;;;29.97;52.23;100851.27;106882;1256;22662;-54
2023/08/30 05:23:31;;;;;;;;;;;;;;;29.98;52.68;100853.70;106795;1260;25371;-51
2023/08/30 05:25:58;;;;;;;;;;;;;;;29.97;53.25;100863.92;106775;1260;22536;-50
2023/08/30 05:28:25;;;;;;;;;;;;;;;29.96;51.82;100867.58;106810;1260;25316;-52
2023/08/30 05:30:52;;;;;;;;;;;;;;;29.96;50.74;100871.70;106712;1269;25319;-51
2023/08/30 05:33:48;;;;;;;;;;;;;;;29.99;50.17;100876.45;106440;1262;25364;-51
2023/08/30 05:36:36;;;;;;;;;;;;;;;30.02;50.13;100877.23;106582;1265;24190;-51
2023/08/30 05:39:41;;;;;;;;;;;;;;;30.04;50.04;100878.91;106426;1266;25323;-56
2023/08/30 05:42:08;;;;;;;;;;;;;;;30.07;50.28;100880.25;106259;1262;25319;-53
2023/08/30 05:44:35;;;;;;;;;;;;;;;30.08;49.73;100876.93;106487;1270;25597;-50
2023/08/30 05:47:02;;;;;;;;;;;;;;;30.08;49.06;100879.61;106809;1267;25306;-51
2023/08/30 05:49:29;;;;;;;;;;;;;;;30.09;49.48;100884.55;106867;1267;25340;-49
2023/08/30 05:51:56;;;;;;;;;;;;;;;30.11;49.02;100880.17;106741;1269;25316;-49
2023/08/30 05:54:26;;;;;;;;;;;;;;;30.15;49.06;100880.40;106715;1270;25459;-53
2023/08/30 05:56:53;;;;;;;;;;;;;;;30.18;48.91;100877.88;106868;1261;25393;-50
2023/08/30 05:59:21;;;;;;;;;;;;;;;30.22;49.06;100874.02;106731;1259;25224;-51
2023/08/30 06:01:49;;;;;;;;;;;;;;;30.29;49.54;100880.36;106551;1259;25343;-52
2023/08/30 06:04:16;;;;;;;;;;;;;;;30.37;49.90;100877.33;106688;1269;25377;-51
2023/08/30 06:06:43;;;;;;;;;;;;;;;30.45;49.54;100882.21;106363;1272;25526;-51
2023/08/30 06:09:11;;;;;;;;;;;;;;;30.52;48.47;100886.55;106627;1267;25542;-52
2023/08/30 06:11:39;;;;;;;;;;;;;;;30.62;47.96;100887.11;106623;1264;23346;-52
2023/08/30 06:14:06;;;;;;;;;;;;;;;30.74;47.45;100886.81;106754;1268;22524;-52
2023/08/30 06:16:32;;;;;;;;;;;;;;;30.85;47.46;100887.03;106800;1262;22614;-51
2023/08/30 06:19:00;;;;;;;;;;;;;;;30.99;46.80;100886.51;106595;1270;24231;-51
2023/08/30 06:21:27;;;;;;;;;;;;;;;31.15;45.66;100885.50;106882;1268;24346;-52
2023/08/30 06:23:53;;;;;;;;;;;;;;;31.35;45.48;100883.45;106824;1269;22519;-51
2023/08/30 06:26:20;;;;;;;;;;;;;;;31.59;44.88;100885.05;106551;1270;25374;-52
2023/08/30 06:28:47;;;;;;;;;;;;;;;31.78;43.96;100887.91;106756;1261;24024;-56
2023/08/30 06:31:31;;;;;;;;;;;;;;;31.95;43.26;100890.06;106668;1270;25305;-53
2023/08/30 06:33:58;;;;;;;;;;;;;;;32.04;42.06;100889.98;106653;1263;24320;-51
2023/08/30 06:36:25;;;;;;;;;;;;;;;32.06;42.08;100891.17;106788;1259;25404;-52
2023/08/30 06:38:53;;;;;;;;;;;;;;;32.05;41.61;100888.95;106822;1272;25379;-50
2023/08/30 06:41:20;;;;;;;;;;;;;;;32.01;41.45;100889.15;106753;1272;25456;-50
2023/08/30 06:43:46;;;;;;;;;;;;;;;31.97;42.32;100892.14;106825;1259;25331;-51
2023/08/30 06:46:13;;;;;;;;;;;;;;;31.92;42.53;100892.30;106614;1262;25370;-51
2023/08/30 06:48:41;;;;;;;;;;;;;;;31.88;42.08;100890.61;106759;1256;25316;-51
2023/08/30 06:51:08;;;;;;;;;;;;;;;31.83;42.69;100890.27;106796;1259;25428;-51
2023/08/30 06:53:34;;;;;;;;;;;;;;;31.81;43.21;100888.55;106768;1259;23238;-52
2023/08/30 06:56:02;;;;;;;;;;;;;;;31.80;43.24;100891.11;106530;1262;24173;-50
2023/08/30 06:58:29;;;;;;;;;;;;;;;31.77;42.16;100891.81;106616;1262;25393;-50
2023/08/30 07:00:59;;;;;;;;;;;;;;;31.73;41.92;100892.28;106853;1259;25411;-51
2023/08/30 07:03:26;;;;;;;;;;;;;;;31.69;42.38;100897.24;106792;1259;25209;-51
2023/08/30 07:05:54;;;;;;;;;;;;;;;31.65;42.72;100898.92;106830;1259;25456;-51
2023/08/30 07:08:21;;;;;;;;;;;;;;;31.61;42.76;100901.47;106588;1270;25383;-51
2023/08/30 07:10:48;;;;;;;;;;;;;;;31.59;41.61;100898.69;106812;1264;25493;-50
2023/08/30 07:13:15;;;;;;;;;;;;;;;31.62;40.89;100898.98;106677;1272;25319;-51
2023/08/30 07:15:42;;;;;;;;;;;;;;;31.72;40.93;100899.73;106883;1266;23886;-55
2023/08/30 07:18:09;;;;;;;;;;;;;;;31.87;40.44;100904.75;106737;1267;24355;-51
2023/08/30 07:20:36;;;;;;;;;;;;;;;32.08;40.28;100905.14;106781;1258;24283;-55
2023/08/30 07:23:03;;;;;;;;;;;;;;;32.33;40.36;100905.45;106836;1262;24188;-51
2023/08/30 07:25:32;;;;;;;;;;;;;;;32.57;38.74;100903.02;106711;1270;25377;-50
2023/08/30 07:27:59;;;;;;;;;;;;;;;32.82;38.29;100904.39;106831;1260;25341;-52
2023/08/30 07:30:26;;;;;;;;;;;;;;;33.02;38.41;100895.45;106843;1259;25316;-49
2023/08/30 07:32:54;;;;;;;;;;;;;;;33.20;38.07;100887.95;106748;1268;25427;-50
2023/08/30 07:35:21;;;;;;;;;;;;;;;33.31;37.50;100886.84;106767;1264;24173;-52
2023/08/30 07:37:48;;;;;;;;;;;;;;;33.34;37.81;100887.92;106876;1268;25395;-51
2023/08/30 07:40:15;;;;;;;;;;;;;;;33.29;37.92;100888.86;106843;1269;25315;-50
2023/08/30 07:42:42;;;;;;;;;;;;;;;33.21;38.02;100889.63;106736;1270;25396;-51
2023/08/30 07:45:09;;;;;;;;;;;;;;;33.10;38.01;100891.11;106782;1269;24241;-50
2023/08/30 07:47:36;;;;;;;;;;;;;;;32.95;37.57;100890.08;106714;1258;25324;-50
2023/08/30 07:50:04;;;;;;;;;;;;;;;32.84;37.74;100889.55;106811;1259;25317;-50
2023/08/30 07:52:31;;;;;;;;;;;;;;;32.74;38.06;100883.02;106570;1269;25331;-50
2023/08/30 07:55:12;;;;;;;;;;;;;;;32.63;38.27;100877.39;106824;1260;23877;-49
2023/08/30 07:57:39;;;;;;;;;;;;;;;32.53;38.50;100874.80;106927;1268;25318;-52
2023/08/30 08:00:06;;;;;;;;;;;;;;;32.42;38.72;100873.49;106830;1270;22676;-51
2023/08/30 08:02:38;;;;;;;;;;;;;;;32.33;39.23;100865.41;106698;1270;24218;-49
2023/08/30 08:05:06;;;;;;;;;;;;;;;32.26;38.88;100865.60;106734;1259;25364;-50
2023/08/30 08:07:32;;;;;;;;;;;;;;;32.19;38.74;100864.60;106838;1267;25306;-51
2023/08/30 08:09:59;;;;;;;;;;;;;;;32.14;38.70;100859.33;106755;1262;25313;-50
2023/08/30 08:12:27;;;;;;;;;;;;;;;32.07;38.77;100856.98;106900;1267;25378;-51
2023/08/30 08:14:54;;;;;;;;;;;;;;;32.00;38.65;100852.52;106711;1271;24355;-55
2023/08/30 08:17:21;;;;;;;;;;;;;;;31.94;38.85;100851.24;106778;1259;25344;-50
2023/08/30 08:19:47;;;;;;;;;;;;;;;31.88;38.70;100851.16;106794;1259;24224;-50
2023/08/30 08:22:14;;;;;;;;;;;;;;;31.84;38.80;100849.45;106882;1260;25415;-50
2023/08/30 08:24:43;;;;;;;;;;;;;;;31.83;39.21;100850.98;106874;1259;24169;-51
2023/08/30 08:27:11;;;;;;;;;;;;;;;31.82;39.29;100846.64;106814;1267;25327;-52
2023/08/30 08:29:38;;;;;;;;;;;;;;;31.81;38.64;100849.23;106762;1274;25324;-51
2023/08/30 08:32:05;;;;;;;;;;;;;;;31.79;37.79;100849.67;106747;1259;25436;-51
2023/08/30 08:34:32;;;;;;;;;;;;;;;31.73;38.38;100849.02;106695;1275;25404;-50
2023/08/30 08:36:59;;;;;;;;;;;;;;;31.67;39.13;100847.61;106770;1269;25471;-52
2023/08/30 08:39:26;;;;;;;;;;;;;;;31.62;39.59;100850.44;106979;1269;24194;-51
2023/08/30 08:41:53;;;;;;;;;;;;;;;31.58;39.08;100850.33;106847;1269;24329;-51
2023/08/30 08:44:20;;;;;;;;;;;;;;;31.56;39.18;100854.89;106784;1256;24209;-57
2023/08/30 08:46:47;;;;;;;;;;;;;;;31.54;39.90;100852.05;106551;1275;25462;-52
2023/08/30 08:49:14;;;;;;;;;;;;;;;31.54;39.60;100854.72;106491;1269;24369;-51
2023/08/30 08:51:42;;;;;;;;;;;;;;;31.54;39.04;100855.83;106650;1267;22506;-58
2023/08/30 08:54:10;;;;;;;;;;;;;;;31.52;39.06;100850.68;106468;1262;23887;-52
2023/08/30 08:56:37;;;;;;;;;;;;;;;31.51;39.12;100849.38;106767;1256;23865;-56
2023/08/30 08:59:05;;;;;;;;;;;;;;;31.51;38.76;100846.47;106812;1267;24212;-54
2023/08/30 09:01:35;;;;;;;;;;;;;;;31.51;39.18;100848.09;106796;1259;24045;-51
2023/08/30 09:04:09;;;;;;;;;;;;;;;31.53;40.15;100846.06;106903;1256;22526;-50
2023/08/30 09:06:37;;;;;;;;;;;;;;;31.54;40.04;100847.68;106773;1263;24192;-49
2023/08/30 09:09:04;;;;;;;;;;;;;;;31.55;39.56;100847.41;106776;1256;24191;-50
2023/08/30 09:11:31;;;;;;;;;;;;;;;31.55;39.19;100847.25;106796;1259;25340;-50
2023/08/30 09:14:17;;;;;;;;;;;;;;;31.55;39.16;100843.68;106768;1268;25469;-50
2023/08/30 09:16:56;;;;;;;;;;;;;;;31.55;39.28;100841.02;106703;1262;25319;-50
2023/08/30 09:19:24;;;;;;;;;;;;;;;31.54;39.73;100839.31;106781;1261;25383;-50
2023/08/30 09:21:52;;;;;;;;;;;;;;;31.53;39.47;100837.44;106815;1269;24199;-49
2023/08/30 09:24:20;;;;;;;;;;;;;;;31.54;39.81;100838.17;106828;1259;25329;-49
2023/08/30 09:26:47;;;;;;;;;;;;;;;31.58;40.32;100839.27;106900;1259;22499;-50
2023/08/30 09:29:16;;;;;;;;;;;;;;;31.60;40.30;100845.13;106820;1259;22515;-49
2023/08/30 09:31:43;;;;;;;;;;;;;;;31.61;39.42;100838.59;106904;1269;25296;-49
2023/08/30 09:34:13;;;;;;;;;;;;;;;31.58;38.88;100837.41;106636;1275;25306;-54
2023/08/30 09:36:40;;;;;;;;;;;;;;;31.57;38.57;100834.13;106805;1272;25354;-49
2023/08/30 09:39:12;;;;;;;;;;;;;;;31.59;39.21;100837.89;106791;1272;25344;-50
2023/08/30 09:41:46;;;;;;;;;;;;;;;31.61;39.50;100837.08;106822;1272;25379;-49
2023/08/30 09:44:14;;;;;;;;;;;;;;;31.64;39.07;100834.92;106796;1278;25334;-50
2023/08/30 09:46:45;;;;;;;;;;;;;;;31.67;38.97;100830.02;106840;1262;25466;-49
2023/08/30 09:49:21;;;;;;;;;;;;;;;31.70;38.82;100829.63;106943;1268;22515;-49
2023/08/30 09:51:48;;;;;;;;;;;;;;;31.72;38.41;100827.23;106771;1274;25411;-50
2023/08/30 09:54:16;;;;;;;;;;;;;;;31.72;38.45;100829.02;106779;1259;25305;-53
2023/08/30 09:57:03;;;;;;;;;;;;;;;31.74;38.72;100829.72;106757;1273;25344;-50
2023/08/30 09:59:30;;;;;;;;;;;;;;;31.76;38.20;100826.05;106790;1261;25393;-51
2023/08/30 10:01:57;;;;;;;;;;;;;;;31.72;38.34;100826.77;106816;1263;24373;-51
2023/08/30 10:04:24;;;;;;;;;;;;;;;31.73;38.94;100825.17;106775;1271;22510;-50
2023/08/30 10:06:51;;;;;;;;;;;;;;;31.73;39.67;100831.43;106748;1259;25491;-50
2023/08/30 10:09:19;;;;;;;;;;;;;;;31.71;40.25;100830.44;106792;1272;25343;-51
2023/08/30 10:12:06;;;;;;;;;;;;;;;31.71;39.72;100833.89;106780;1268;25309;-50
2023/08/30 10:14:33;;;;;;;;;;;;;;;31.72;39.41;100828.55;106751;1272;25306;-51
2023/08/30 10:17:03;;;;;;;;;;;;;;;31.79;39.46;100828.45;106855;1273;25343;-54
2023/08/30 10:19:31;;;;;;;;;;;;;;;31.83;39.39;100830.34;106825;1268;25313;-50
2023/08/30 10:22:03;;;;;;;;;;;;;;;31.86;38.73;100830.56;106857;1269;25306;-50
2023/08/30 10:24:35;;;;;;;;;;;;;;;31.88;39.03;100831.38;106848;1268;24391;-50
2023/08/30 10:27:18;;;;;;;;;;;;;;;31.92;39.09;100828.96;106773;1265;25341;-51
2023/08/30 10:29:46;;;;;;;;;;;;;;;31.98;38.88;100834.06;106808;1259;25434;-49
2023/08/30 10:32:12;;;;;;;;;;;;;;;32.03;39.04;100834.06;106905;1259;25372;-50
2023/08/30 10:34:39;;;;;;;;;;;;;;;32.06;38.80;100829.89;106658;1271;25315;-50
2023/08/30 10:37:06;;;;;;;;;;;;;;;32.08;38.37;100833.35;106786;1269;25396;-50
2023/08/30 10:39:35;;;;;;;;;;;;;;;32.08;38.17;100824.73;106757;1270;25331;-51
2023/08/30 10:42:12;;;;;;;;;;;;;;;32.10;38.27;100823.46;106772;1268;25377;-50
2023/08/30 10:44:52;;;;;;;;;;;;;;;32.08;37.99;100815.19;106792;1259;22503;-49
2023/08/30 10:47:31;;;;;;;;;;;;;;;32.08;38.28;100811.48;106827;1262;25306;-50
2023/08/30 10:50:04;;;;;;;;;;;;;;;32.07;37.80;100802.70;106733;1275;25344;-49
2023/08/30 10:52:32;;;;;;;;;;;;;;;32.08;37.31;100804.21;106821;1272;25321;-50
2023/08/30 10:55:15;;;;;;;;;;;;;;;32.11;37.64;100796.09;106788;1273;25344;-49
2023/08/30 10:57:46;;;;;;;;;;;;;;;32.13;38.19;100787.73;106804;1269;25344;-49
2023/08/30 11:00:19;;;;;;;;;;;;;;;32.16;37.57;100780.80;106817;1259;25399;-50
2023/08/30 11:02:48;;;;;;;;;;;;;;;32.17;37.63;100774.01;106838;1270;25450;-50
2023/08/30 11:05:15;;;;;;;;;;;;;;;32.18;37.93;100765.52;106859;1261;23987;-50
2023/08/30 11:07:43;;;;;;;;;;;;;;;32.18;38.09;100763.91;106703;1259;23883;-49
2023/08/30 11:10:10;;;;;;;;;;;;;;;32.15;38.11;100759.08;106908;1259;25376;-50
2023/08/30 11:12:37;;;;;;;;;;;;;;;32.10;38.34;100755.17;106817;1259;24195;-51
2023/08/30 11:15:04;;;;;;;;;;;;;;;32.09;38.64;100752.62;106821;1272;25330;-50
2023/08/30 11:17:31;;;;;;;;;;;;;;;32.08;38.32;100750.88;106761;1273;25392;-50
2023/08/30 11:20:06;;;;;;;;;;;;;;;32.09;37.83;100744.87;106842;1270;24224;-50
2023/08/30 11:22:37;;;;;;;;;;;;;;;32.10;38.05;100742.29;106792;1266;22493;-49
2023/08/30 11:25:04;;;;;;;;;;;;;;;32.11;37.79;100736.55;106745;1259;25316;-49
2023/08/30 11:27:32;;;;;;;;;;;;;;;32.09;37.94;100735.71;106815;1266;25302;-50
2023/08/30 11:30:05;;;;;;;;;;;;;;;32.08;37.65;100734.39;106869;1269;24179;-49
2023/08/30 11:32:33;;;;;;;;;;;;;;;32.08;37.95;100729.34;106846;1269;22583;-51
2023/08/30 11:35:00;;;;;;;;;;;;;;;32.09;38.21;100724.63;106794;1262;25296;-49
2023/08/30 11:37:28;;;;;;;;;;;;;;;32.11;37.64;100726.43;106804;1259;25340;-50
2023/08/30 11:39:55;;;;;;;;;;;;;;;32.12;38.25;100726.16;106858;1259;25306;-49
2023/08/30 11:42:22;;;;;;;;;;;;;;;32.14;38.40;100721.79;106908;1267;25396;-50
2023/08/30 11:44:50;;;;;;;;;;;;;;;32.16;37.57;100721.38;106756;1259;25341;-56
2023/08/30 11:47:23;;;;;;;;;;;;;;;32.18;37.64;100725.89;106754;1259;25344;-50
2023/08/30 11:49:53;;;;;;;;;;;;;;;32.22;37.94;100726.30;106875;1262;25334;-50
2023/08/30 11:52:20;;;;;;;;;;;;;;;32.25;37.45;100723.38;106873;1263;22635;-50
2023/08/30 11:54:47;;;;;;;;;;;;;;;32.27;37.40;100725.52;106853;1263;25468;-50
2023/08/30 11:57:14;;;;;;;;;;;;;;;32.29;37.29;100720.21;106830;1265;25768;-50
2023/08/30 11:59:41;;;;;;;;;;;;;;;32.29;37.61;100717.20;106872;1270;25383;-50
2023/08/30 12:02:13;;;;;;;;;;;;;;;32.27;37.63;100717.41;106728;1260;25331;-50
2023/08/30 12:04:41;;;;;;;;;;;;;;;32.27;37.57;100719.80;106772;1262;23871;-50
2023/08/30 12:07:09;;;;;;;;;;;;;;;32.26;37.27;100719.86;106581;1262;24191;-49
2023/08/30 12:09:36;;;;;;;;;;;;;;;32.25;37.68;100715.48;106585;1275;24173;-51
2023/08/30 12:12:09;;;;;;;;;;;;;;;32.28;37.98;100713.53;106770;1269;25306;-51
2023/08/30 12:14:36;;;;;;;;;;;;;;;32.24;38.31;100711.98;106711;1259;24187;-52
2023/08/30 12:17:03;;;;;;;;;;;;;;;32.20;38.35;100711.26;106503;1265;23844;-54
2023/08/30 12:19:31;;;;;;;;;;;;;;;32.21;38.13;100712.34;106723;1256;25459;-50
2023/08/30 12:22:04;;;;;;;;;;;;;;;32.23;38.28;100708.60;106801;1270;25342;-50
2023/08/30 12:24:43;;;;;;;;;;;;;;;32.24;38.68;100713.43;106720;1275;26007;-50
2023/08/30 12:27:10;;;;;;;;;;;;;;;32.23;37.80;100712.34;106814;1260;23399;-50
2023/08/30 12:29:37;;;;;;;;;;;;;;;32.21;37.97;100712.75;106608;1259;25350;-49
2023/08/30 12:32:04;;;;;;;;;;;;;;;32.20;38.11;100710.02;106627;1273;25331;-52